Pagrindinis puslapis
METAR-TAF:

METAR-TAF

Oro uostai :

Manta, Ekvadoras

platuma: 00-57S, ilguma: 080-41W, Aukštis: 13 m

Dabartinis oras

Ataskaita buvo paskelbta 54 minutes, ne 09:00 UTC
Vėjas 5 kt iš Pietų/Pietvakarių
Temperatūra 23°C
Drėgmė 89%
Slėgis 1013 hPa
Matomumas 10 km arba daugiau
Apsiniaukę ne aukštis 1600 ft

METAR: SEMT 220900Z 20005KT 9999 OVC016 23/21 Q1013 RMK A2994

Laikas: 04:54 (09:54 UTC)

Prognozė

Ataskaita buvo paskelbta 5 valandos ir 34 minutes, ne 04:20 UTC
Prognozė galioja nuo 22 metu 06 UTC su 23 metu 06 UTC
Vėjas 6 kt iš Pietų/Pietvakarių
Matomumas 10 km arba daugiau
Su prošvaistėmis ne aukštis 2000 ft
Tapsmas
nuo 22 metu 08 UTC su 22 metu 09 UTC
Apsiniaukę ne aukštis 2000 ft
Tapsmas
nuo 22 metu 17 UTC su 22 metu 18 UTC
Vėjas 10 kt iš Vakarų
Su prošvaistėmis ne aukštis 2300 ft
Tapsmas
nuo 23 metu 00 UTC su 23 metu 01 UTC
Vėjas 5 kt iš Pietų/Pietvakarių

TAF: SEMT 220420Z 2206/2306 20006KT 9999 BKN020 BECMG 2208/2209 OVC020 BECMG 2217/2218 27010KT BKN023 BECMG 2300/2301 20005KT TX29/2219Z TN21/2210Z

Orai ataskaitas ir orų prognozės (METAR, TAF).

turimą stotys yra geltonos ir raudonos taškus žemėlapyje.

Perkelti pele per norėdami pamatyti stoties vardą.

Tada spustelėkite, norėdami matyti oro stebėjimo ir prognozės.

Norėdami pakeisti žemėlapį: spustelėkite ant žalios mygtukų su juodo kryžiaus žemyn,; žalią mygtuką su brūkšneliu, jei norite nutolinti; arba žalių rodyklių gretimoms žemėlapius.


METAR-TAF: